Main page
METAR-TAF:

METAR-TAF

Airports :

RAF Linton-on-Ouse

Linton-on-Ouse, England

latitude: 54-03N, longitude: 001-15W, elevation: 16 m

Current weather observation

The report was made 59 minutes ago, at 16:50 UTC
Wind 7 kt from the Southeast
Temperature 9°C
Humidity 93%
Pressure 1018 hPa
Visibility: 7000 m

METAR: EGXU 151650Z AUTO 13007KT 7000 // NCD 09/08 Q1018

Time: 17:49 (17:49 UTC)

Forecast

The report was made 4 hours and 30 minutes ago, at 13:19 UTC
Forecast valid from 15 at 15 UTC to 15 at 19 UTC
Wind 10 kt from the South
Visibility 10 km or more
Few clouds at a height of 1500 ft
Temporary
from 15 at 15 UTC to 15 at 19 UTC
Broken clouds at a height of 1500 ft

TAF: EGXU 151319Z 1515/1519 17010KT 9999 FEW015 TEMPO 1515/1519 BKN015

Weather observations and forecasts of more than 4000 airports (METAR and TAF reports).

The available stations are represented by yellow and red dots on the map.

Hover mouse over dot to see the name of the station.

Then click to see weather observations and forecasts.

To change the map : click on the green buttons with a black cross to zoom in, on the green button with a dash to zoom out, or on the green arrows for adjacent maps.


METAR-TAF: